createdAt,value
2023-04-25T00:00:39.896Z,2.05
2023-04-25T00:03:06.813Z,2.10
2023-04-25T00:05:33.389Z,2.80
2023-04-25T00:08:00.067Z,2.30
2023-04-25T00:10:26.620Z,2.30
2023-04-25T00:12:53.130Z,2.00
2023-04-25T00:15:19.648Z,2.45
2023-04-25T00:17:49.717Z,2.42
2023-04-25T00:20:19.256Z,2.72
2023-04-25T00:22:48.404Z,2.50
2023-04-25T00:25:15.060Z,1.95
2023-04-25T00:27:42.761Z,1.95
2023-04-25T00:30:09.751Z,1.80
2023-04-25T00:32:36.282Z,1.80
2023-04-25T00:35:03.045Z,2.10
2023-04-25T00:37:29.553Z,1.90
2023-04-25T00:39:56.938Z,2.33
2023-04-25T00:42:23.445Z,2.28
2023-04-25T00:44:50.950Z,2.05
2023-04-25T00:47:20.807Z,2.35
2023-04-25T00:49:47.434Z,2.30
2023-04-25T00:52:13.993Z,1.83
2023-04-25T00:54:40.887Z,2.90
2023-04-25T00:57:07.510Z,1.85
2023-04-25T00:59:34.515Z,2.20
2023-04-25T01:02:01.569Z,2.20
2023-04-25T01:04:28.879Z,1.95
2023-04-25T01:06:55.450Z,1.80
2023-04-25T01:09:23.037Z,1.98
2023-04-25T01:11:52.849Z,2.17
2023-04-25T01:14:21.480Z,2.10
2023-04-25T01:16:48.002Z,2.28
2023-04-25T01:19:17.837Z,1.80
2023-04-25T01:21:44.726Z,1.67
2023-04-25T01:24:11.387Z,1.92
2023-04-25T01:26:38.921Z,2.20
2023-04-25T01:29:06.004Z,1.85
2023-04-25T01:31:33.438Z,1.90
2023-04-25T01:33:59.895Z,1.73
2023-04-25T01:36:26.380Z,1.60
2023-04-25T01:38:56.353Z,2.45
2023-04-25T01:41:26.011Z,1.95
2023-04-25T01:43:56.420Z,1.98
2023-04-25T01:46:26.082Z,1.85
2023-04-25T01:48:55.645Z,2.03
2023-04-25T01:51:26.655Z,1.85
2023-04-25T01:53:58.371Z,1.90
2023-04-25T01:56:25.976Z,1.90
2023-04-25T01:58:55.684Z,2.30
2023-04-25T02:01:23.971Z,2.20
2023-04-25T02:03:50.645Z,2.38
2023-04-25T02:06:17.305Z,2.92
2023-04-25T02:08:43.750Z,3.15
2023-04-25T02:11:10.216Z,3.13
2023-04-25T02:13:36.704Z,2.65
2023-04-25T02:16:03.323Z,2.47
2023-04-25T02:18:29.917Z,2.55
2023-04-25T02:20:56.466Z,2.40
2023-04-25T02:23:28.698Z,2.85
2023-04-25T02:25:58.404Z,2.72
2023-04-25T02:28:27.817Z,2.30
2023-04-25T02:30:58.495Z,3.33
2023-04-25T02:33:27.827Z,3.13
2023-04-25T02:35:54.473Z,2.20
2023-04-25T02:38:20.950Z,2.60
2023-04-25T02:40:47.386Z,2.30
2023-04-25T02:43:13.872Z,2.13
2023-04-25T02:45:40.564Z,2.72
2023-04-25T02:48:07.281Z,2.33
2023-04-25T02:50:33.802Z,2.63
2023-04-25T02:53:00.432Z,2.72
2023-04-25T02:55:29.934Z,2.42
2023-04-25T02:57:59.674Z,2.40
2023-04-25T03:00:29.333Z,2.72
2023-04-25T03:02:57.200Z,2.85
2023-04-25T03:05:23.748Z,2.55
2023-04-25T03:07:50.222Z,2.28
2023-04-25T03:10:16.664Z,2.50
2023-04-25T03:12:43.132Z,2.50
2023-04-25T03:15:09.961Z,2.63
2023-04-25T03:17:36.576Z,2.90
2023-04-25T03:20:05.014Z,2.35
2023-04-25T03:22:31.598Z,2.20
2023-04-25T03:25:00.949Z,2.90
2023-04-25T03:27:30.586Z,2.45
2023-04-25T03:29:59.380Z,2.17
2023-04-25T03:32:25.955Z,1.75
2023-04-25T03:34:52.736Z,2.35
2023-04-25T03:37:19.192Z,2.15
2023-04-25T03:39:45.698Z,2.60
2023-04-25T03:42:12.167Z,3.25
2023-04-25T03:44:38.671Z,2.17
2023-04-25T03:47:05.117Z,2.10
2023-04-25T03:49:33.778Z,3.33
2023-04-25T03:52:03.603Z,2.80
2023-04-25T03:54:30.740Z,2.55
2023-04-25T03:56:57.245Z,3.00
2023-04-25T03:59:23.800Z,2.53
2023-04-25T04:01:50.282Z,3.42
2023-04-25T04:04:17.058Z,2.67
2023-04-25T04:06:43.694Z,2.45
2023-04-25T04:09:12.010Z,3.45
2023-04-25T04:11:39.440Z,2.67
2023-04-25T04:14:07.209Z,2.85
2023-04-25T04:16:34.602Z,3.60
2023-04-25T04:19:04.354Z,2.50
2023-04-25T04:21:34.518Z,2.05
2023-04-25T04:24:04.800Z,2.80
2023-04-25T04:26:33.770Z,3.13
2023-04-25T04:29:04.317Z,3.47
2023-04-25T04:31:33.886Z,3.58
2023-04-25T04:34:03.369Z,3.45
2023-04-25T04:36:32.833Z,3.50
2023-04-25T04:38:59.236Z,3.05
2023-04-25T04:41:25.704Z,3.20
2023-04-25T04:43:54.241Z,2.40
2023-04-25T04:46:21.132Z,2.90
2023-04-25T04:48:47.685Z,2.55
2023-04-25T04:51:14.166Z,2.53
2023-04-25T04:53:40.751Z,2.85
2023-04-25T04:56:07.448Z,2.30
2023-04-25T04:58:34.094Z,2.75
2023-04-25T05:01:02.774Z,2.88
2023-04-25T05:03:32.039Z,2.67
2023-04-25T05:05:58.694Z,2.90
2023-04-25T05:08:25.177Z,2.60
2023-04-25T05:10:51.761Z,2.45
2023-04-25T05:13:18.222Z,2.75
2023-04-25T05:15:44.681Z,2.35
2023-04-25T05:18:11.298Z,3.08
2023-04-25T05:20:37.863Z,3.08
2023-04-25T05:23:05.067Z,2.35
2023-04-25T05:25:34.541Z,2.40
2023-04-25T05:28:03.849Z,2.72
2023-04-25T05:30:34.304Z,2.80
2023-04-25T05:33:03.893Z,3.70
2023-04-25T05:35:33.418Z,2.85
2023-04-25T05:38:02.465Z,2.70
2023-04-25T05:40:28.963Z,2.33
2023-04-25T05:42:55.483Z,2.30
2023-04-25T05:45:21.963Z,1.98
2023-04-25T05:47:48.496Z,2.55
2023-04-25T05:50:15.055Z,2.65
2023-04-25T05:52:41.525Z,2.63
2023-04-25T05:55:08.625Z,3.30
2023-04-25T05:57:35.321Z,2.70
2023-04-25T06:00:02.979Z,2.22
2023-04-25T06:02:32.112Z,2.00
2023-04-25T06:04:59.186Z,2.17
2023-04-25T06:07:26.282Z,2.38
2023-04-25T06:09:53.061Z,3.25
2023-04-25T06:12:19.869Z,3.00
2023-04-25T06:14:46.665Z,2.55
2023-04-25T06:17:15.907Z,2.40
2023-04-25T06:19:42.388Z,1.88
2023-04-25T06:22:09.009Z,2.28
2023-04-25T06:24:36.377Z,2.10
2023-04-25T06:27:06.113Z,2.50
2023-04-25T06:29:35.433Z,2.63
2023-04-25T06:32:03.141Z,2.28
2023-04-25T06:34:32.018Z,2.38
2023-04-25T06:36:58.489Z,2.65
2023-04-25T06:39:26.292Z,2.33
2023-04-25T06:41:52.788Z,2.40
2023-04-25T06:44:19.366Z,2.53
2023-04-25T06:46:48.442Z,3.05
2023-04-25T06:49:17.003Z,2.58
2023-04-25T06:51:46.588Z,2.60
2023-04-25T06:54:13.258Z,2.40
2023-04-25T06:56:39.885Z,1.83
2023-04-25T06:59:08.763Z,2.47
2023-04-25T07:01:36.313Z,2.15
2023-04-25T07:04:03.303Z,1.67
2023-04-25T07:06:32.030Z,2.00
2023-04-25T07:08:58.489Z,3.10
2023-04-25T07:11:25.021Z,2.40
2023-04-25T07:13:51.515Z,2.38
2023-04-25T07:16:18.226Z,2.40
2023-04-25T07:18:44.711Z,1.92
2023-04-25T07:21:11.258Z,2.33
2023-04-25T07:23:38.585Z,2.42
2023-04-25T07:26:05.232Z,3.05
2023-04-25T07:28:34.759Z,1.73
2023-04-25T07:31:05.171Z,1.77
2023-04-25T07:33:34.691Z,1.50
2023-04-25T07:36:04.372Z,2.08
2023-04-25T07:38:34.021Z,2.20
2023-04-25T07:41:03.799Z,2.05
2023-04-25T07:43:33.936Z,1.65
2023-04-25T07:46:03.800Z,1.60
2023-04-25T07:48:34.638Z,2.10
2023-04-25T07:51:06.382Z,1.95
2023-04-25T07:53:34.979Z,1.58
2023-04-25T07:56:03.166Z,1.88
2023-04-25T07:58:32.138Z,2.13
2023-04-25T08:00:58.975Z,1.63
2023-04-25T08:03:25.980Z,1.75
2023-04-25T08:05:53.019Z,1.73
2023-04-25T08:08:19.800Z,1.75
2023-04-25T08:10:46.359Z,2.13
2023-04-25T08:13:12.805Z,2.40
2023-04-25T08:15:39.319Z,1.73
2023-04-25T08:18:06.359Z,2.13
2023-04-25T08:20:32.908Z,1.85
2023-04-25T08:23:05.042Z,2.22
2023-04-25T08:25:32.752Z,2.38
2023-04-25T08:28:03.972Z,1.58
2023-04-25T08:30:33.440Z,1.92
2023-04-25T08:33:03.053Z,2.10
2023-04-25T08:35:32.335Z,1.27
2023-04-25T08:37:58.856Z,1.25
2023-04-25T08:40:30.692Z,1.65
2023-04-25T08:42:58.813Z,2.03
2023-04-25T08:45:28.870Z,1.52
2023-04-25T08:47:58.161Z,1.38
2023-04-25T08:50:25.929Z,1.75
2023-04-25T08:52:54.594Z,1.90
2023-04-25T08:55:22.138Z,2.20
2023-04-25T08:57:49.206Z,1.42
2023-04-25T09:00:15.923Z,1.30
2023-04-25T09:02:44.689Z,1.20
2023-04-25T09:05:14.759Z,1.20
2023-04-25T09:07:41.549Z,1.52
2023-04-25T09:10:08.420Z,1.23
2023-04-25T09:12:36.273Z,1.52
2023-04-25T09:15:11.172Z,1.40
2023-04-25T09:17:41.348Z,1.80
2023-04-25T09:20:10.351Z,1.52
2023-04-25T09:22:37.829Z,1.30
2023-04-25T09:25:15.633Z,1.13
2023-04-25T09:27:53.339Z,1.20
2023-04-25T09:30:20.024Z,1.20
2023-04-25T09:32:46.680Z,1.10
2023-04-25T09:35:25.871Z,1.30
2023-04-25T09:37:52.356Z,2.90
2023-04-25T09:40:19.395Z,2.30
2023-04-25T09:42:45.864Z,1.48
2023-04-25T09:45:16.091Z,1.45
2023-04-25T09:47:44.971Z,1.23
2023-04-25T09:50:16.913Z,1.35
2023-04-25T09:52:44.081Z,3.63
2023-04-25T09:55:10.757Z,1.35
2023-04-25T09:57:40.731Z,2.10
2023-04-25T10:00:12.030Z,1.17
2023-04-25T10:02:40.452Z,1.60
2023-04-25T10:05:08.928Z,1.67
2023-04-25T10:07:39.028Z,1.50
2023-04-25T10:10:07.005Z,2.95
2023-04-25T10:12:35.026Z,1.65
2023-04-25T10:15:02.754Z,2.33
2023-04-25T10:17:29.525Z,1.95
2023-04-25T10:19:56.527Z,1.90
2023-04-25T10:22:42.226Z,1.77
2023-04-25T10:25:10.011Z,1.92
2023-04-25T10:27:37.153Z,1.92
2023-04-25T10:30:14.005Z,1.85
2023-04-25T10:32:42.599Z,2.17
2023-04-25T10:35:36.223Z,2.22
2023-04-25T10:38:14.922Z,1.10
2023-04-25T10:40:41.498Z,2.00
2023-04-25T10:43:33.037Z,1.90
2023-04-25T10:46:17.447Z,3.63
2023-04-25T10:48:49.387Z,3.25
2023-04-25T10:51:54.408Z,3.53
2023-04-25T10:54:24.048Z,3.42
2023-04-25T10:56:51.812Z,3.65
2023-04-25T10:59:19.947Z,3.15
2023-04-25T11:01:48.158Z,2.88
2023-04-25T11:04:26.202Z,2.97
2023-04-25T11:07:04.538Z,2.83
2023-04-25T11:09:37.310Z,3.00
2023-04-25T11:12:04.995Z,2.97
2023-04-25T11:14:33.546Z,3.45
2023-04-25T11:17:04.869Z,3.35
2023-04-25T11:19:34.429Z,3.05
2023-04-25T11:22:04.585Z,3.40
2023-04-25T11:24:35.722Z,3.90
2023-04-25T11:27:04.052Z,3.50
2023-04-25T11:29:35.037Z,3.55
2023-04-25T11:32:04.970Z,3.20
2023-04-25T11:34:35.136Z,3.45
2023-04-25T11:37:05.195Z,3.47
2023-04-25T11:39:34.634Z,3.30
2023-04-25T11:42:08.133Z,2.70
2023-04-25T11:44:36.784Z,3.20
2023-04-25T11:47:03.307Z,3.38
2023-04-25T11:49:36.055Z,3.00
2023-04-25T11:52:02.616Z,3.00
2023-04-25T11:54:31.510Z,2.70
2023-04-25T11:56:58.349Z,2.83
2023-04-25T11:59:26.331Z,2.75
2023-04-25T12:01:53.465Z,3.13
2023-04-25T12:04:25.585Z,2.88
2023-04-25T12:06:56.620Z,3.47
2023-04-25T12:09:35.192Z,2.75
2023-04-25T12:12:05.671Z,2.88
2023-04-25T12:14:36.591Z,3.33
2023-04-25T12:17:09.010Z,3.30
2023-04-25T12:19:37.881Z,3.30
2023-04-25T12:22:05.013Z,3.10
2023-04-25T12:24:38.309Z,3.30
2023-04-25T12:27:09.041Z,3.17
2023-04-25T12:29:48.903Z,3.72
2023-04-25T12:32:17.651Z,3.05
2023-04-25T12:34:44.601Z,3.10
2023-04-25T12:37:11.451Z,2.85
2023-04-25T12:39:38.401Z,2.40
2023-04-25T12:42:06.889Z,3.08
2023-04-25T12:44:36.065Z,2.83
2023-04-25T12:47:04.929Z,3.30
2023-04-25T12:49:40.170Z,2.70
2023-04-25T12:52:06.773Z,2.78
2023-04-25T12:54:36.289Z,3.00
2023-04-25T12:57:06.945Z,2.97
2023-04-25T12:59:37.736Z,3.20
2023-04-25T13:02:07.211Z,3.20
2023-04-25T13:04:37.297Z,3.20
2023-04-25T13:07:07.684Z,3.08
2023-04-25T13:09:37.054Z,3.08
2023-04-25T13:12:08.563Z,2.97
2023-04-25T13:14:38.032Z,3.40
2023-04-25T13:17:07.376Z,3.15
2023-04-25T13:19:37.068Z,2.88
2023-04-25T13:22:06.419Z,2.90
2023-04-25T13:24:35.254Z,2.92
2023-04-25T13:27:04.833Z,3.15
2023-04-25T13:29:31.337Z,2.47
2023-04-25T13:31:57.816Z,3.33
2023-04-25T13:34:24.338Z,3.35
2023-04-25T13:36:50.789Z,3.00
2023-04-25T13:39:17.238Z,2.63
2023-04-25T13:41:43.675Z,3.10
2023-04-25T13:44:11.438Z,3.38
2023-04-25T13:49:12.686Z,3.10
2023-04-25T13:51:40.406Z,3.70
2023-04-25T13:54:07.027Z,2.80
2023-04-25T13:56:35.658Z,2.95
2023-04-25T13:59:05.014Z,3.10
2023-04-25T14:01:35.572Z,3.28
2023-04-25T14:04:05.396Z,3.10
2023-04-25T14:06:34.326Z,2.97
2023-04-25T14:09:04.511Z,3.00
2023-04-25T14:11:31.176Z,3.10
2023-04-25T14:13:57.732Z,3.05
2023-04-25T14:16:24.359Z,3.60
2023-04-25T14:18:51.038Z,2.80
2023-04-25T14:21:17.543Z,3.15
2023-04-25T14:23:44.036Z,3.05
2023-04-25T14:26:13.509Z,3.67
2023-04-25T14:28:40.158Z,2.92
2023-04-25T14:31:06.752Z,3.67
2023-04-25T14:33:36.025Z,3.60
2023-04-25T14:36:04.941Z,3.50
2023-04-25T14:38:31.423Z,3.58
2023-04-25T14:40:57.998Z,3.38
2023-04-25T14:43:24.495Z,3.33
2023-04-25T14:45:51.017Z,3.50
2023-04-25T14:48:20.523Z,3.70
2023-04-25T14:50:47.494Z,3.40
2023-04-25T14:53:14.032Z,3.20
2023-04-25T14:55:42.305Z,3.38
2023-04-25T14:58:08.783Z,3.40
2023-04-25T15:00:38.478Z,3.10
2023-04-25T15:03:08.686Z,3.40
2023-04-25T15:05:38.500Z,3.47
2023-04-25T15:08:07.781Z,2.65
2023-04-25T15:10:37.593Z,3.10
2023-04-25T15:13:07.365Z,3.58
2023-04-25T15:15:35.712Z,3.67
2023-04-25T15:18:02.252Z,3.70
2023-04-25T15:20:29.052Z,3.00
2023-04-25T15:22:56.209Z,3.50
2023-04-25T15:25:22.984Z,3.58
2023-04-25T15:27:52.528Z,3.28
2023-04-25T15:30:22.007Z,3.30
2023-04-25T15:32:48.679Z,3.47
2023-04-25T15:35:16.116Z,3.63
2023-04-25T15:37:43.210Z,3.38
2023-04-25T15:40:15.739Z,3.60
2023-04-25T15:42:47.795Z,3.63
2023-04-25T15:45:15.646Z,3.40
2023-04-25T15:47:42.989Z,3.75
2023-04-25T15:50:10.280Z,3.97
2023-04-25T15:52:37.535Z,3.95
2023-04-25T15:55:07.839Z,3.97
2023-04-25T15:57:37.736Z,3.80
2023-04-25T16:00:14.899Z,4.63
2023-04-25T16:02:42.930Z,4.00
2023-04-25T16:05:11.354Z,4.05
2023-04-25T16:07:39.492Z,3.78
2023-04-25T16:10:06.575Z,4.07
2023-04-25T16:12:35.189Z,4.28
2023-04-25T16:15:01.807Z,3.97
2023-04-25T16:17:30.006Z,4.10
2023-04-25T16:19:57.089Z,3.65
2023-04-25T16:22:23.591Z,3.80
2023-04-25T16:24:50.992Z,4.57
2023-04-25T16:27:17.607Z,4.20
2023-04-25T16:29:44.175Z,4.25
2023-04-25T16:32:11.052Z,4.10
2023-04-25T16:34:37.660Z,3.90
2023-04-25T16:37:08.470Z,3.90
2023-04-25T16:39:37.699Z,4.13
2023-04-25T16:42:07.720Z,4.00
2023-04-25T16:44:39.494Z,3.90
2023-04-25T16:47:06.480Z,3.85
2023-04-25T16:49:37.242Z,3.63
2023-04-25T16:52:05.817Z,3.78
2023-04-25T16:54:32.333Z,3.67
2023-04-25T16:56:59.892Z,4.30
2023-04-25T16:59:26.381Z,3.90
2023-04-25T17:01:52.981Z,3.58
2023-04-25T17:04:19.912Z,3.40
2023-04-25T17:06:47.026Z,4.25
2023-04-25T17:09:13.498Z,3.60
2023-04-25T17:11:39.993Z,4.30
2023-04-25T17:14:09.556Z,4.00
2023-04-25T17:16:37.512Z,3.92
2023-04-25T17:19:09.089Z,3.78
2023-04-25T17:22:14.389Z,2.10
2023-04-25T17:24:41.431Z,1.50
2023-04-25T17:27:08.408Z,1.40
2023-04-25T17:29:35.772Z,1.70
2023-04-25T17:32:06.719Z,0.82
2023-04-25T17:34:35.466Z,2.38
2023-04-25T17:37:01.956Z,1.13
2023-04-25T17:39:28.492Z,1.35
2023-04-25T17:41:55.433Z,0.90
2023-04-25T17:44:21.925Z,1.40
2023-04-25T17:46:48.682Z,1.23
2023-04-25T17:49:15.311Z,0.95
2023-04-25T17:51:41.793Z,1.10
2023-04-25T17:54:09.029Z,1.27
2023-04-25T17:56:39.581Z,1.17
2023-04-25T17:59:14.780Z,1.50
2023-04-25T18:01:45.565Z,1.08
2023-04-25T18:04:14.136Z,1.85
2023-04-25T18:06:41.497Z,1.15
2023-04-25T18:09:16.169Z,1.00
2023-04-25T18:11:46.588Z,1.80
2023-04-25T18:14:25.293Z,1.27
2023-04-25T18:16:55.234Z,1.88
2023-04-25T18:19:23.287Z,1.10
2023-04-25T18:21:53.216Z,1.52
2023-04-25T18:24:26.257Z,1.30
2023-04-25T18:26:54.979Z,1.27
2023-04-25T18:29:32.210Z,1.50
2023-04-25T18:32:00.103Z,1.42
2023-04-25T18:34:27.636Z,1.40
2023-04-25T18:36:55.629Z,1.33
2023-04-25T18:39:26.282Z,1.23
2023-04-25T18:41:58.803Z,1.52
2023-04-25T18:44:28.377Z,1.35
2023-04-25T18:46:55.110Z,1.83
2023-04-25T18:49:21.628Z,1.83
2023-04-25T18:51:49.031Z,1.30
2023-04-25T18:54:15.719Z,1.52
2023-04-25T18:56:42.229Z,1.65
2023-04-25T18:59:08.711Z,1.60
2023-04-25T19:01:36.085Z,1.30
2023-04-25T19:04:05.158Z,1.67
2023-04-25T19:06:33.549Z,1.30
2023-04-25T19:08:59.998Z,1.60
2023-04-25T19:11:26.892Z,1.77
2023-04-25T19:13:56.647Z,2.03
2023-04-25T19:16:23.849Z,1.35
2023-04-25T19:18:52.630Z,1.80
2023-04-25T19:21:19.544Z,3.00
2023-04-25T19:23:46.401Z,2.47
2023-04-25T19:26:13.264Z,2.38
2023-04-25T19:28:44.808Z,1.50
2023-04-25T19:31:11.874Z,1.90
2023-04-25T19:33:41.965Z,1.83
2023-04-25T19:36:11.048Z,2.30
2023-04-25T19:38:40.345Z,1.63
2023-04-25T19:41:08.350Z,1.60
2023-04-25T19:43:34.816Z,1.85
2023-04-25T19:46:01.271Z,1.70
2023-04-25T19:48:27.851Z,1.73
2023-04-25T19:50:54.396Z,1.58
2023-04-25T19:53:20.855Z,1.50
2023-04-25T19:55:47.878Z,1.33
2023-04-25T19:58:14.531Z,1.60
2023-04-25T20:00:40.980Z,1.70
2023-04-25T20:03:10.761Z,1.40
2023-04-25T20:05:40.358Z,1.50
2023-04-25T20:08:11.363Z,1.73
2023-04-25T20:10:41.817Z,1.90
2023-04-25T20:13:08.614Z,1.67
2023-04-25T20:15:35.058Z,1.73
2023-04-25T20:18:01.582Z,1.85
2023-04-25T20:20:28.506Z,1.88
2023-04-25T20:22:55.538Z,1.90
2023-04-25T20:25:22.371Z,1.70
2023-04-25T20:27:48.903Z,2.42
2023-04-25T20:30:15.639Z,1.67
2023-04-25T20:32:42.172Z,2.08
2023-04-25T20:35:10.192Z,1.70
2023-04-25T20:37:39.808Z,1.75
2023-04-25T20:40:09.830Z,1.83
2023-04-25T20:42:36.543Z,1.33
2023-04-25T20:45:08.046Z,1.70
2023-04-25T20:47:34.976Z,1.95
2023-04-25T20:50:03.890Z,2.03
2023-04-25T20:52:31.938Z,2.33
2023-04-25T20:54:58.985Z,2.22
2023-04-25T20:57:25.973Z,3.17
2023-04-25T20:59:52.976Z,2.83
2023-04-25T21:02:22.394Z,2.53
2023-04-25T21:04:48.895Z,2.30
2023-04-25T21:07:15.551Z,2.10
2023-04-25T21:09:45.649Z,2.38
2023-04-25T21:12:12.298Z,2.17
2023-04-25T21:14:40.210Z,2.53
2023-04-25T21:17:06.884Z,2.22
2023-04-25T21:19:33.938Z,2.13
2023-04-25T21:22:01.760Z,2.20
2023-04-25T21:24:28.271Z,2.45
2023-04-25T21:26:54.768Z,2.30
2023-04-25T21:29:21.279Z,2.17
2023-04-25T21:31:48.211Z,2.13
2023-04-25T21:34:14.786Z,2.50
2023-04-25T21:37:07.892Z,3.03
2023-04-25T21:39:34.905Z,2.55
2023-04-25T21:42:01.986Z,2.95
2023-04-25T21:44:30.264Z,2.15
2023-04-25T21:46:57.087Z,2.10
2023-04-25T21:49:29.197Z,2.80
2023-04-25T21:51:56.967Z,2.50
2023-04-25T21:54:23.464Z,2.85
2023-04-25T21:56:49.985Z,3.03
2023-04-25T21:59:16.480Z,2.72
2023-04-25T22:01:43.641Z,2.30
2023-04-25T22:04:11.650Z,2.95
2023-04-25T22:06:38.199Z,3.00
2023-04-25T22:09:05.301Z,2.88
2023-04-25T22:11:32.384Z,3.00
2023-04-25T22:13:58.893Z,2.60
2023-04-25T22:16:25.346Z,2.33
2023-04-25T22:18:53.259Z,2.10
2023-04-25T22:21:20.248Z,2.50
2023-04-25T22:23:46.835Z,2.90
2023-04-25T22:26:16.286Z,2.88
2023-04-25T22:28:43.468Z,2.90
2023-04-25T22:31:10.688Z,2.22
2023-04-25T22:33:37.377Z,2.85
2023-04-25T22:36:04.211Z,1.85
2023-04-25T22:38:30.751Z,2.38
2023-04-25T22:40:57.224Z,2.67
2023-04-25T22:43:24.043Z,2.47
2023-04-25T22:45:50.823Z,3.08
2023-04-25T22:48:17.358Z,2.22
2023-04-25T22:50:43.824Z,2.47
2023-04-25T22:53:10.376Z,2.85
2023-04-25T22:55:36.897Z,2.78
2023-04-25T22:58:04.547Z,2.38
2023-04-25T23:00:31.157Z,2.78
2023-04-25T23:02:58.213Z,2.47
2023-04-25T23:05:24.823Z,2.35
2023-04-25T23:07:51.302Z,2.40
2023-04-25T23:10:18.668Z,1.90
2023-04-25T23:12:45.866Z,1.88
2023-04-25T23:15:16.350Z,1.85
2023-04-25T23:17:43.509Z,1.92
2023-04-25T23:20:11.297Z,2.13
2023-04-25T23:22:38.836Z,1.95
2023-04-25T23:25:07.520Z,2.33
2023-04-25T23:27:34.002Z,2.38
2023-04-25T23:30:00.532Z,2.58
2023-04-25T23:32:27.155Z,1.90
2023-04-25T23:34:53.654Z,2.00
2023-04-25T23:37:20.143Z,2.17
2023-04-25T23:39:52.844Z,1.80
2023-04-25T23:42:20.341Z,2.15
2023-04-25T23:44:46.841Z,1.90
2023-04-25T23:47:14.324Z,1.90
2023-04-25T23:49:41.244Z,2.20
2023-04-25T23:52:07.844Z,2.13
2023-04-25T23:54:34.274Z,2.30
2023-04-25T23:57:00.857Z,2.20
2023-04-25T23:59:28.632Z,2.05
